createdAt,value
2019-02-10T00:00:58.042Z,4.00
2019-02-10T00:04:17.892Z,3.17
2019-02-10T00:07:35.932Z,2.80
2019-02-10T00:11:01.040Z,3.83
2019-02-10T00:14:39.729Z,3.20
2019-02-10T00:18:00.726Z,6.00
2019-02-10T00:21:22.320Z,4.80
2019-02-10T00:24:54.884Z,13.00
2019-02-10T00:28:32.387Z,4.63
2019-02-10T00:31:52.926Z,3.63
2019-02-10T00:35:12.432Z,4.97
2019-02-10T00:38:40.234Z,4.63
2019-02-10T00:42:10.071Z,3.77
2019-02-10T00:45:30.094Z,3.47
2019-02-10T00:48:59.774Z,3.40
2019-02-10T00:52:38.896Z,3.90
2019-02-10T00:56:12.505Z,5.80
2019-02-10T00:59:38.282Z,9.50
2019-02-10T01:02:49.944Z,8.50
2019-02-10T01:06:17.133Z,7.53
2019-02-10T01:09:50.347Z,6.03
2019-02-10T01:13:14.641Z,6.90
2019-02-10T01:16:47.730Z,5.43
2019-02-10T01:23:58.206Z,5.23
2019-02-10T01:27:18.375Z,3.80
2019-02-10T01:30:44.336Z,4.70
2019-02-10T01:33:56.309Z,4.77
2019-02-10T01:37:25.202Z,4.40
2019-02-10T01:40:53.978Z,4.70
2019-02-10T01:44:27.301Z,4.67
2019-02-10T01:47:49.944Z,4.03
2019-02-10T01:51:05.772Z,4.47
2019-02-10T01:54:23.470Z,3.20
2019-02-10T01:57:54.633Z,3.80
2019-02-10T02:01:24.848Z,3.77
2019-02-10T02:05:02.856Z,4.80
2019-02-10T02:08:31.251Z,4.23
2019-02-10T02:11:50.531Z,4.23
2019-02-10T02:15:09.430Z,4.00
2019-02-10T02:18:33.237Z,3.80
2019-02-10T02:21:58.684Z,3.87
2019-02-10T02:25:20.246Z,3.60
2019-02-10T02:28:38.696Z,4.80
2019-02-10T02:32:19.469Z,3.43
2019-02-10T02:35:35.076Z,4.20
2019-02-10T02:39:09.237Z,4.40
2019-02-10T02:42:36.279Z,3.87
2019-02-10T02:46:01.253Z,3.53
2019-02-10T02:49:32.922Z,3.63
2019-02-10T02:52:46.254Z,3.57
2019-02-10T02:56:03.720Z,4.23
2019-02-10T02:59:35.314Z,3.00
2019-02-10T03:02:55.924Z,4.00
2019-02-10T03:06:14.945Z,3.30
2019-02-10T03:09:52.304Z,3.63
2019-02-10T03:13:07.969Z,3.50
2019-02-10T03:16:32.133Z,3.40
2019-02-10T03:19:44.891Z,3.23
2019-02-10T03:23:03.221Z,3.07
2019-02-10T03:26:17.409Z,2.90
2019-02-10T03:29:35.643Z,3.77
2019-02-10T03:33:14.525Z,3.10
2019-02-10T03:36:51.574Z,3.87
2019-02-10T03:40:19.173Z,3.53
2019-02-10T03:43:24.309Z,3.50
2019-02-10T03:46:29.498Z,3.63
2019-02-10T03:49:34.634Z,3.77
2019-02-10T03:52:39.758Z,4.30
2019-02-10T03:55:44.848Z,3.83
2019-02-10T03:58:50.143Z,4.17
2019-02-10T04:01:55.333Z,3.33
2019-02-10T04:05:00.460Z,3.33
2019-02-10T04:08:05.761Z,3.20
2019-02-10T04:11:10.908Z,3.03
2019-02-10T04:14:16.081Z,3.77
2019-02-10T04:17:21.164Z,3.10
2019-02-10T04:20:26.311Z,4.00
2019-02-10T04:23:31.421Z,3.90
2019-02-10T04:26:37.672Z,4.23
2019-02-10T04:29:42.918Z,3.70
2019-02-10T04:32:47.992Z,3.70
2019-02-10T04:35:54.209Z,3.20
2019-02-10T04:38:59.537Z,2.83
2019-02-10T04:42:04.677Z,3.67
2019-02-10T04:45:09.754Z,3.80
2019-02-10T04:48:14.906Z,3.43
2019-02-10T04:51:20.083Z,3.50
2019-02-10T04:54:25.240Z,3.20
2019-02-10T04:57:30.386Z,3.63
2019-02-10T05:00:35.629Z,3.03
2019-02-10T05:03:40.757Z,3.27
2019-02-10T05:06:45.858Z,3.37
2019-02-10T05:09:50.988Z,3.30
2019-02-10T05:12:56.072Z,3.53
2019-02-10T05:16:01.207Z,3.43
2019-02-10T05:19:06.401Z,4.23
2019-02-10T05:22:11.519Z,3.83
2019-02-10T05:25:16.645Z,3.10
2019-02-10T05:28:21.770Z,3.30
2019-02-10T05:31:26.904Z,4.33
2019-02-10T05:34:32.082Z,3.60
2019-02-10T05:37:37.222Z,4.73
2019-02-10T05:40:43.313Z,4.10
2019-02-10T05:43:48.478Z,3.97
2019-02-10T05:46:53.595Z,4.00
2019-02-10T05:49:58.754Z,4.53
2019-02-10T05:53:03.872Z,4.47
2019-02-10T05:56:09.104Z,3.87
2019-02-10T05:59:14.247Z,3.73
2019-02-10T06:02:26.905Z,3.30
2019-02-10T06:05:32.597Z,4.00
2019-02-10T06:08:37.689Z,3.30
2019-02-10T06:11:42.909Z,3.60
2019-02-10T06:14:48.113Z,3.80
2019-02-10T06:17:53.270Z,4.23
2019-02-10T06:20:58.455Z,4.13
2019-02-10T06:24:03.707Z,3.67
2019-02-10T06:27:08.873Z,10.23
2019-02-10T06:30:14.028Z,4.50
2019-02-10T06:33:19.159Z,4.50
2019-02-10T06:36:24.230Z,5.10
2019-02-10T06:39:29.436Z,5.53
2019-02-10T06:42:34.589Z,4.37
2019-02-10T06:45:39.723Z,3.87
2019-02-10T06:48:45.979Z,4.20
2019-02-10T06:51:51.113Z,4.37
2019-02-10T06:54:56.375Z,4.37
2019-02-10T06:58:01.461Z,5.37
2019-02-10T07:01:24.267Z,4.70
2019-02-10T07:04:31.164Z,6.10
2019-02-10T07:07:36.293Z,4.70
2019-02-10T07:10:41.432Z,5.03
2019-02-10T07:13:50.415Z,5.90
2019-02-10T07:17:47.516Z,7.53
2019-02-10T07:20:52.725Z,6.37
2019-02-10T07:24:17.289Z,4.87
2019-02-10T07:27:28.630Z,3.47
2019-02-10T07:30:41.200Z,4.23
2019-02-10T07:34:29.550Z,3.60
2019-02-10T07:37:59.095Z,3.97
2019-02-10T07:42:00.690Z,3.33
2019-02-10T07:45:29.205Z,3.80
2019-02-10T07:49:15.558Z,5.63
2019-02-10T07:52:58.526Z,4.53
2019-02-10T07:56:55.954Z,5.00
2019-02-10T08:00:45.162Z,4.90
2019-02-10T08:04:05.245Z,5.20
2019-02-10T08:07:45.525Z,5.80
2019-02-10T08:11:31.309Z,4.97
2019-02-10T08:15:07.366Z,6.00
2019-02-10T08:18:29.572Z,5.63
2019-02-10T08:22:05.910Z,4.77
2019-02-10T08:25:51.933Z,3.60
2019-02-10T08:29:38.129Z,4.10
2019-02-10T08:33:09.386Z,3.93
2019-02-10T08:36:25.505Z,3.17
2019-02-10T08:40:12.909Z,4.50
2019-02-10T08:43:41.580Z,9.23
2019-02-10T08:47:12.198Z,12.17
2019-02-10T08:50:43.208Z,13.77
2019-02-10T08:53:48.513Z,12.50
2019-02-10T08:56:53.702Z,12.63
2019-02-10T08:59:58.823Z,18.00
2019-02-10T09:03:03.980Z,15.93
2019-02-10T09:06:09.169Z,16.37
2019-02-10T09:09:14.335Z,19.30
2019-02-10T09:12:19.460Z,32.23
2019-02-10T09:15:24.627Z,17.93
2019-02-10T09:18:29.794Z,15.57
2019-02-10T09:21:35.072Z,13.43
2019-02-10T09:24:40.263Z,15.40
2019-02-10T09:27:45.394Z,16.43
2019-02-10T09:30:50.514Z,14.90
2019-02-10T09:33:55.674Z,12.13
2019-02-10T09:37:00.797Z,7.43
2019-02-10T09:40:06.271Z,6.70
2019-02-10T09:43:11.385Z,6.10
2019-02-10T09:46:16.448Z,7.00
2019-02-10T09:49:21.591Z,5.93
2019-02-10T09:52:26.698Z,5.83
2019-02-10T09:55:31.848Z,5.20
2019-02-10T09:58:37.040Z,5.30
2019-02-10T10:01:42.146Z,10.47
2019-02-10T10:04:47.309Z,6.33
2019-02-10T10:07:52.446Z,7.07
2019-02-10T10:10:57.582Z,8.10
2019-02-10T10:14:02.675Z,9.30
2019-02-10T10:17:07.793Z,9.23
2019-02-10T10:20:14.613Z,26.40
2019-02-10T10:23:19.746Z,18.67
2019-02-10T10:26:24.838Z,15.73
2019-02-10T10:29:30.317Z,9.67
2019-02-10T10:32:35.472Z,8.63
2019-02-10T10:35:40.704Z,8.23
2019-02-10T10:38:45.890Z,9.87
2019-02-10T10:41:51.025Z,9.90
2019-02-10T10:44:57.285Z,10.97
2019-02-10T10:48:02.410Z,10.67
2019-02-10T10:51:07.554Z,14.23
2019-02-10T10:54:12.657Z,11.33
2019-02-10T10:57:17.857Z,11.80
2019-02-10T11:00:22.982Z,9.80
2019-02-10T11:03:28.123Z,7.83
2019-02-10T11:06:34.037Z,8.63
2019-02-10T11:09:39.232Z,8.83
2019-02-10T11:12:44.388Z,8.63
2019-02-10T11:15:49.491Z,8.70
2019-02-10T11:18:54.798Z,8.27
2019-02-10T11:21:59.900Z,8.50
2019-02-10T11:25:06.336Z,9.60
2019-02-10T11:28:11.357Z,9.60
2019-02-10T11:31:17.590Z,9.67
2019-02-10T11:34:22.743Z,10.27
2019-02-10T11:37:27.985Z,9.30
2019-02-10T11:40:33.140Z,8.93
2019-02-10T11:43:38.359Z,9.90
2019-02-10T11:46:45.052Z,10.00
2019-02-10T11:49:50.201Z,10.10
2019-02-10T11:52:55.341Z,7.50
2019-02-10T11:56:00.567Z,7.30
2019-02-10T11:59:05.787Z,8.03
2019-02-10T12:02:10.980Z,7.77
2019-02-10T12:05:16.079Z,7.40
2019-02-10T12:08:21.257Z,8.00
2019-02-10T12:11:26.343Z,9.43
2019-02-10T12:14:31.542Z,10.90
2019-02-10T12:17:36.665Z,15.30
2019-02-10T12:20:42.389Z,20.87
2019-02-10T12:23:48.561Z,21.20
2019-02-10T12:26:53.696Z,24.30
2019-02-10T12:29:58.891Z,19.17
2019-02-10T12:33:04.177Z,12.80
2019-02-10T12:36:09.396Z,16.00
2019-02-10T12:39:14.655Z,11.43
2019-02-10T12:42:19.968Z,6.83
2019-02-10T12:45:25.093Z,1.77
2019-02-10T12:48:30.335Z,1.83
2019-02-10T12:51:35.500Z,1.40
2019-02-10T12:54:40.667Z,1.70
2019-02-10T12:57:45.763Z,1.80
2019-02-10T13:00:51.044Z,1.53
2019-02-10T13:03:57.277Z,1.70
2019-02-10T13:07:02.408Z,1.37
2019-02-10T13:10:09.176Z,1.20
2019-02-10T13:13:19.351Z,1.47
2019-02-10T13:16:21.414Z,1.33
2019-02-10T13:19:26.661Z,1.47
2019-02-10T13:22:31.816Z,1.80
2019-02-10T13:25:37.033Z,1.90
2019-02-10T13:28:49.115Z,2.10
2019-02-10T13:31:54.337Z,2.03
2019-02-10T13:34:59.496Z,1.43
2019-02-10T13:38:04.686Z,1.90
2019-02-10T13:41:09.856Z,2.13
2019-02-10T13:44:15.000Z,1.40
2019-02-10T13:47:21.178Z,4.80
2019-02-10T13:50:26.342Z,1.63
2019-02-10T13:53:31.522Z,1.90
2019-02-10T13:56:36.895Z,1.50
2019-02-10T13:59:42.055Z,1.23
2019-02-10T14:02:47.247Z,1.57
2019-02-10T14:05:52.375Z,1.37
2019-02-10T14:08:57.609Z,1.67
2019-02-10T14:12:02.712Z,2.20
2019-02-10T14:15:09.814Z,1.10
2019-02-10T14:18:14.994Z,1.40
2019-02-10T14:21:20.191Z,1.00
2019-02-10T14:24:25.340Z,1.40
2019-02-10T14:27:30.531Z,1.23
2019-02-10T14:30:35.791Z,1.70
2019-02-10T14:33:40.925Z,1.20
2019-02-10T14:36:46.138Z,1.30
2019-02-10T14:39:51.286Z,1.43
2019-02-10T14:42:56.467Z,1.57
2019-02-10T14:46:01.675Z,1.40
2019-02-10T14:49:06.805Z,1.50
2019-02-10T14:52:12.049Z,1.20
2019-02-10T14:55:17.273Z,1.27
2019-02-10T14:58:22.526Z,1.60
2019-02-10T15:01:27.632Z,1.60
2019-02-10T15:04:32.838Z,2.10
2019-02-10T15:07:39.185Z,1.20
2019-02-10T15:10:44.337Z,1.43
2019-02-10T15:13:49.676Z,1.17
2019-02-10T15:16:54.902Z,3.07
2019-02-10T15:20:00.148Z,1.60
2019-02-10T15:23:05.323Z,1.43
2019-02-10T15:26:10.433Z,1.20
2019-02-10T15:29:15.529Z,1.23
2019-02-10T15:32:20.837Z,0.80
2019-02-10T15:35:26.199Z,1.13
2019-02-10T15:38:31.345Z,1.00
2019-02-10T15:41:36.537Z,0.80
2019-02-10T15:44:41.671Z,0.53
2019-02-10T15:47:46.893Z,0.60
2019-02-10T15:50:52.005Z,0.53
2019-02-10T15:53:57.463Z,0.50
2019-02-10T15:57:02.621Z,0.30
2019-02-10T16:00:10.930Z,0.47
2019-02-10T16:03:16.379Z,0.47
2019-02-10T16:06:21.486Z,1.07
2019-02-10T16:09:26.616Z,0.93
2019-02-10T16:12:31.864Z,1.03
2019-02-10T16:15:37.021Z,1.07
2019-02-10T16:18:42.231Z,3.27
2019-02-10T16:21:47.446Z,0.80
2019-02-10T16:24:52.620Z,0.90
2019-02-10T16:27:57.673Z,1.40
2019-02-10T16:31:02.945Z,1.13
2019-02-10T16:34:08.116Z,4.10
2019-02-10T16:37:13.192Z,0.50
2019-02-10T16:40:18.684Z,0.97
2019-02-10T16:43:24.846Z,1.27
2019-02-10T16:46:29.988Z,0.60
2019-02-10T16:49:35.155Z,0.97
2019-02-10T16:52:41.469Z,1.20
2019-02-10T16:55:46.725Z,1.20
2019-02-10T16:58:51.911Z,1.80
2019-02-10T17:01:57.104Z,1.07
2019-02-10T17:05:02.231Z,0.40
2019-02-10T17:08:07.380Z,0.60
2019-02-10T17:11:14.373Z,0.80
2019-02-10T17:14:19.393Z,0.80
2019-02-10T17:17:24.606Z,0.90
2019-02-10T17:20:29.882Z,0.93
2019-02-10T17:23:35.155Z,0.93
2019-02-10T17:26:40.279Z,1.80
2019-02-10T17:29:45.554Z,0.80
2019-02-10T17:32:50.666Z,0.70
2019-02-10T17:35:55.766Z,0.73
2019-02-10T17:39:00.953Z,0.97
2019-02-10T17:42:07.784Z,1.00
2019-02-10T17:45:12.946Z,1.00
2019-02-10T17:48:18.207Z,0.90
2019-02-10T17:51:23.350Z,1.40
2019-02-10T17:54:28.784Z,0.43
2019-02-10T17:57:33.961Z,0.93
2019-02-10T18:00:43.443Z,1.07
2019-02-10T18:03:48.715Z,0.73
2019-02-10T18:06:53.992Z,0.50
2019-02-10T18:09:59.167Z,0.97
2019-02-10T18:13:04.440Z,0.77
2019-02-10T18:16:34.339Z,0.70
2019-02-10T18:19:52.775Z,0.90
2019-02-10T18:23:07.509Z,0.67
2019-02-10T18:26:47.147Z,0.90
2019-02-10T18:30:09.497Z,0.60
2019-02-10T18:33:36.474Z,0.80
2019-02-10T18:37:03.693Z,0.83
2019-02-10T18:40:20.036Z,0.60
2019-02-10T18:43:37.864Z,0.70
2019-02-10T18:47:06.209Z,1.03
2019-02-10T18:50:19.468Z,1.67
2019-02-10T18:53:42.576Z,1.43
2019-02-10T18:56:59.674Z,0.63
2019-02-10T19:00:23.976Z,1.13
2019-02-10T19:03:34.269Z,0.60
2019-02-10T19:07:10.869Z,0.80
2019-02-10T19:10:53.416Z,2.43
2019-02-10T19:14:11.597Z,20.40
2019-02-10T19:17:41.555Z,0.90
2019-02-10T19:21:04.322Z,2.00
2019-02-10T19:24:28.511Z,0.70
2019-02-10T19:28:07.884Z,0.83
2019-02-10T19:31:27.176Z,1.60
2019-02-10T19:35:00.657Z,0.40
2019-02-10T19:38:26.023Z,0.60
2019-02-10T19:41:38.175Z,0.47
2019-02-10T19:45:01.684Z,0.63
2019-02-10T19:48:28.628Z,0.50
2019-02-10T19:51:43.148Z,0.40
2019-02-10T19:55:13.087Z,0.50
2019-02-10T19:58:36.063Z,0.50
2019-02-10T20:01:58.969Z,0.57
2019-02-10T20:05:23.132Z,0.50
2019-02-10T20:08:47.273Z,0.43
2019-02-10T20:12:04.369Z,0.53
2019-02-10T20:15:16.588Z,0.67
2019-02-10T20:18:37.927Z,0.70
2019-02-10T20:22:11.262Z,0.50
2019-02-10T20:25:35.835Z,0.80
2019-02-10T20:29:13.415Z,0.60
2019-02-10T20:32:36.470Z,0.30
2019-02-10T20:36:20.569Z,0.50
2019-02-10T20:39:50.736Z,0.50
2019-02-10T20:43:17.929Z,1.37
2019-02-10T20:46:42.063Z,1.50
2019-02-10T20:50:05.037Z,0.97
2019-02-10T20:53:33.252Z,1.93
2019-02-10T20:57:00.295Z,0.90
2019-02-10T21:00:15.767Z,0.60
2019-02-10T21:03:42.626Z,0.73
2019-02-10T21:07:06.768Z,0.63
2019-02-10T21:10:30.986Z,0.80
2019-02-10T21:13:55.181Z,0.40
2019-02-10T21:17:10.627Z,0.50
2019-02-10T21:20:25.003Z,0.50
2019-02-10T21:23:38.034Z,0.63
2019-02-10T21:27:00.848Z,0.40
2019-02-10T21:30:21.616Z,1.53
2019-02-10T21:33:36.361Z,0.47
2019-02-10T21:36:49.404Z,0.30
2019-02-10T21:40:19.388Z,0.50
2019-02-10T21:43:42.347Z,0.50
2019-02-10T21:46:55.395Z,0.40
2019-02-10T21:50:00.517Z,0.40
2019-02-10T21:53:05.770Z,0.50
2019-02-10T21:56:11.993Z,0.50
2019-02-10T21:59:18.269Z,0.50
2019-02-10T22:02:23.576Z,0.60
2019-02-10T22:05:28.729Z,0.70
2019-02-10T22:08:33.870Z,0.50
2019-02-10T22:11:39.104Z,0.60
2019-02-10T22:14:44.297Z,0.50
2019-02-10T22:17:49.444Z,1.07
2019-02-10T22:20:54.624Z,0.40
2019-02-10T22:23:59.892Z,0.70
2019-02-10T22:27:05.024Z,0.90
2019-02-10T22:30:13.273Z,0.60
2019-02-10T22:33:18.463Z,1.00
2019-02-10T22:36:23.758Z,0.50
2019-02-10T22:39:28.849Z,0.63
2019-02-10T22:42:33.961Z,0.50
2019-02-10T22:45:39.151Z,0.50
2019-02-10T22:48:44.312Z,0.90
2019-02-10T22:51:49.510Z,0.40
2019-02-10T22:54:54.868Z,0.40
2019-02-10T22:58:00.153Z,0.60
2019-02-10T23:01:06.859Z,0.93
2019-02-10T23:04:13.634Z,0.63
2019-02-10T23:07:18.812Z,0.47
2019-02-10T23:10:23.947Z,0.53
2019-02-10T23:13:29.327Z,0.60
2019-02-10T23:16:34.686Z,0.53
2019-02-10T23:19:39.834Z,0.50
2019-02-10T23:22:45.001Z,0.30
2019-02-10T23:25:50.125Z,0.40
2019-02-10T23:28:55.259Z,0.43
2019-02-10T23:32:00.755Z,0.40
2019-02-10T23:35:07.127Z,0.77
2019-02-10T23:38:12.229Z,3.13
2019-02-10T23:41:17.330Z,0.40
2019-02-10T23:44:22.518Z,0.50
2019-02-10T23:47:27.870Z,0.43
2019-02-10T23:50:33.049Z,4.50
2019-02-10T23:53:38.313Z,0.47
2019-02-10T23:56:47.268Z,0.50
2019-02-10T23:59:50.398Z,0.73
